sensor_id;sensor_type;location;lat;lon;timestamp;P1;durP1;ratioP1;P2;durP2;ratioP2
261;SDS011;114;48.260;10.988;2022-07-15T00:02:20;6.90;;;2.50;;
261;SDS011;114;48.260;10.988;2022-07-15T00:04:46;2.93;;;2.70;;
261;SDS011;114;48.260;10.988;2022-07-15T00:07:12;3.43;;;3.13;;
261;SDS011;114;48.260;10.988;2022-07-15T00:09:38;2.87;;;2.67;;
261;SDS011;114;48.260;10.988;2022-07-15T00:12:22;2.60;;;2.40;;
261;SDS011;114;48.260;10.988;2022-07-15T00:14:48;11.60;;;3.00;;
261;SDS011;114;48.260;10.988;2022-07-15T00:17:14;3.17;;;2.90;;
261;SDS011;114;48.260;10.988;2022-07-15T00:19:41;3.07;;;2.47;;
261;SDS011;114;48.260;10.988;2022-07-15T00:22:06;4.97;;;2.70;;
261;SDS011;114;48.260;10.988;2022-07-15T00:24:32;3.27;;;2.97;;
261;SDS011;114;48.260;10.988;2022-07-15T00:26:58;3.53;;;2.77;;
261;SDS011;114;48.260;10.988;2022-07-15T00:29:24;4.20;;;2.77;;
261;SDS011;114;48.260;10.988;2022-07-15T00:31:52;11.23;;;3.00;;
261;SDS011;114;48.260;10.988;2022-07-15T00:34:18;3.10;;;2.43;;
261;SDS011;114;48.260;10.988;2022-07-15T00:36:44;11.53;;;3.03;;
261;SDS011;114;48.260;10.988;2022-07-15T00:39:10;5.80;;;2.83;;
261;SDS011;114;48.260;10.988;2022-07-15T00:41:38;3.57;;;2.60;;
261;SDS011;114;48.260;10.988;2022-07-15T00:44:08;5.10;;;2.50;;
261;SDS011;114;48.260;10.988;2022-07-15T00:46:35;7.20;;;2.73;;
261;SDS011;114;48.260;10.988;2022-07-15T00:49:01;6.73;;;2.90;;
261;SDS011;114;48.260;10.988;2022-07-15T00:51:33;7.30;;;3.33;;
261;SDS011;114;48.260;10.988;2022-07-15T00:54:08;3.60;;;2.93;;
261;SDS011;114;48.260;10.988;2022-07-15T00:56:36;7.17;;;2.93;;
261;SDS011;114;48.260;10.988;2022-07-15T00:59:05;5.73;;;3.33;;
261;SDS011;114;48.260;10.988;2022-07-15T01:01:34;11.60;;;2.50;;
261;SDS011;114;48.260;10.988;2022-07-15T01:04:02;3.90;;;2.80;;
261;SDS011;114;48.260;10.988;2022-07-15T01:06:29;8.60;;;2.37;;
261;SDS011;114;48.260;10.988;2022-07-15T01:08:55;6.60;;;2.40;;
261;SDS011;114;48.260;10.988;2022-07-15T01:11:21;4.83;;;2.90;;
261;SDS011;114;48.260;10.988;2022-07-15T01:13:47;3.57;;;3.10;;
261;SDS011;114;48.260;10.988;2022-07-15T01:16:13;3.93;;;2.97;;
261;SDS011;114;48.260;10.988;2022-07-15T01:18:39;4.80;;;2.80;;
261;SDS011;114;48.260;10.988;2022-07-15T01:21:05;4.87;;;2.90;;
261;SDS011;114;48.260;10.988;2022-07-15T01:23:31;7.07;;;3.30;;
261;SDS011;114;48.260;10.988;2022-07-15T01:25:57;2.73;;;2.53;;
261;SDS011;114;48.260;10.988;2022-07-15T01:28:23;3.03;;;2.33;;
261;SDS011;114;48.260;10.988;2022-07-15T01:30:49;4.07;;;2.60;;
261;SDS011;114;48.260;10.988;2022-07-15T01:33:16;4.77;;;2.60;;
261;SDS011;114;48.260;10.988;2022-07-15T01:35:41;6.10;;;3.20;;
261;SDS011;114;48.260;10.988;2022-07-15T01:38:08;3.20;;;2.90;;
261;SDS011;114;48.260;10.988;2022-07-15T01:40:34;5.83;;;2.63;;
261;SDS011;114;48.260;10.988;2022-07-15T01:43:00;7.03;;;2.57;;
261;SDS011;114;48.260;10.988;2022-07-15T01:45:26;3.10;;;2.80;;
261;SDS011;114;48.260;10.988;2022-07-15T01:47:52;7.30;;;2.00;;
261;SDS011;114;48.260;10.988;2022-07-15T01:50:19;6.73;;;2.93;;
261;SDS011;114;48.260;10.988;2022-07-15T01:52:45;2.80;;;2.37;;
261;SDS011;114;48.260;10.988;2022-07-15T01:55:11;3.30;;;2.33;;
261;SDS011;114;48.260;10.988;2022-07-15T01:57:37;4.80;;;2.33;;
261;SDS011;114;48.260;10.988;2022-07-15T02:00:04;8.13;;;2.80;;
261;SDS011;114;48.260;10.988;2022-07-15T02:02:35;6.90;;;2.40;;
261;SDS011;114;48.260;10.988;2022-07-15T02:05:01;3.50;;;3.00;;
261;SDS011;114;48.260;10.988;2022-07-15T02:07:28;6.30;;;2.40;;
261;SDS011;114;48.260;10.988;2022-07-15T02:09:54;7.70;;;2.53;;
261;SDS011;114;48.260;10.988;2022-07-15T02:12:22;4.70;;;2.10;;
261;SDS011;114;48.260;10.988;2022-07-15T02:14:48;7.30;;;2.50;;
261;SDS011;114;48.260;10.988;2022-07-15T02:17:14;8.93;;;2.37;;
261;SDS011;114;48.260;10.988;2022-07-15T02:19:40;6.00;;;1.90;;
261;SDS011;114;48.260;10.988;2022-07-15T02:22:06;6.63;;;2.30;;
261;SDS011;114;48.260;10.988;2022-07-15T02:24:32;6.40;;;2.07;;
261;SDS011;114;48.260;10.988;2022-07-15T02:26:58;7.13;;;2.10;;
261;SDS011;114;48.260;10.988;2022-07-15T02:29:24;2.40;;;1.87;;
261;SDS011;114;48.260;10.988;2022-07-15T02:31:49;2.90;;;2.20;;
261;SDS011;114;48.260;10.988;2022-07-15T02:34:15;5.33;;;2.20;;
261;SDS011;114;48.260;10.988;2022-07-15T02:36:42;4.50;;;1.97;;
261;SDS011;114;48.260;10.988;2022-07-15T02:39:08;3.73;;;2.33;;
261;SDS011;114;48.260;10.988;2022-07-15T02:41:34;3.70;;;2.40;;
261;SDS011;114;48.260;10.988;2022-07-15T02:44:00;8.63;;;2.40;;
261;SDS011;114;48.260;10.988;2022-07-15T02:46:27;2.93;;;2.20;;
261;SDS011;114;48.260;10.988;2022-07-15T02:48:53;3.80;;;1.87;;
261;SDS011;114;48.260;10.988;2022-07-15T02:51:19;3.37;;;2.37;;
261;SDS011;114;48.260;10.988;2022-07-15T02:53:45;4.73;;;2.30;;
261;SDS011;114;48.260;10.988;2022-07-15T02:56:11;15.50;;;2.17;;
261;SDS011;114;48.260;10.988;2022-07-15T02:58:38;11.43;;;2.87;;
261;SDS011;114;48.260;10.988;2022-07-15T03:01:04;3.77;;;2.20;;
261;SDS011;114;48.260;10.988;2022-07-15T03:03:30;5.90;;;2.10;;
261;SDS011;114;48.260;10.988;2022-07-15T03:05:56;5.20;;;2.80;;
261;SDS011;114;48.260;10.988;2022-07-15T03:08:23;4.57;;;2.37;;
261;SDS011;114;48.260;10.988;2022-07-15T03:10:50;3.70;;;2.33;;
261;SDS011;114;48.260;10.988;2022-07-15T03:13:16;5.83;;;2.80;;
261;SDS011;114;48.260;10.988;2022-07-15T03:15:42;4.07;;;2.30;;
261;SDS011;114;48.260;10.988;2022-07-15T03:18:08;4.83;;;2.67;;
261;SDS011;114;48.260;10.988;2022-07-15T03:20:34;6.50;;;2.43;;
261;SDS011;114;48.260;10.988;2022-07-15T03:23:00;5.83;;;2.97;;
261;SDS011;114;48.260;10.988;2022-07-15T03:25:26;11.57;;;2.60;;
261;SDS011;114;48.260;10.988;2022-07-15T03:27:52;5.33;;;2.57;;
261;SDS011;114;48.260;10.988;2022-07-15T03:30:18;7.50;;;2.47;;
261;SDS011;114;48.260;10.988;2022-07-15T03:32:45;7.23;;;2.47;;
261;SDS011;114;48.260;10.988;2022-07-15T03:35:11;12.67;;;2.73;;
261;SDS011;114;48.260;10.988;2022-07-15T03:37:37;5.13;;;2.63;;
261;SDS011;114;48.260;10.988;2022-07-15T03:40:04;8.87;;;2.60;;
261;SDS011;114;48.260;10.988;2022-07-15T03:42:31;6.00;;;2.50;;
261;SDS011;114;48.260;10.988;2022-07-15T03:44:57;12.23;;;3.13;;
261;SDS011;114;48.260;10.988;2022-07-15T03:47:22;9.50;;;2.50;;
261;SDS011;114;48.260;10.988;2022-07-15T03:49:48;2.43;;;2.10;;
261;SDS011;114;48.260;10.988;2022-07-15T03:52:14;2.07;;;1.80;;
261;SDS011;114;48.260;10.988;2022-07-15T03:54:40;9.70;;;2.93;;
261;SDS011;114;48.260;10.988;2022-07-15T03:57:07;4.50;;;2.20;;
261;SDS011;114;48.260;10.988;2022-07-15T03:59:32;2.57;;;2.20;;
261;SDS011;114;48.260;10.988;2022-07-15T04:01:58;9.20;;;2.30;;
261;SDS011;114;48.260;10.988;2022-07-15T04:04:24;4.80;;;2.43;;
261;SDS011;114;48.260;10.988;2022-07-15T04:06:50;2.70;;;2.50;;
261;SDS011;114;48.260;10.988;2022-07-15T04:09:16;6.00;;;2.40;;
261;SDS011;114;48.260;10.988;2022-07-15T04:11:42;5.50;;;2.90;;
261;SDS011;114;48.260;10.988;2022-07-15T04:14:12;7.73;;;2.37;;
261;SDS011;114;48.260;10.988;2022-07-15T04:16:38;3.43;;;2.50;;
261;SDS011;114;48.260;10.988;2022-07-15T04:19:07;8.70;;;3.00;;
261;SDS011;114;48.260;10.988;2022-07-15T04:21:33;5.90;;;3.07;;
261;SDS011;114;48.260;10.988;2022-07-15T04:24:00;3.97;;;2.20;;
261;SDS011;114;48.260;10.988;2022-07-15T04:26:27;4.77;;;2.43;;
261;SDS011;114;48.260;10.988;2022-07-15T04:28:54;7.07;;;2.80;;
261;SDS011;114;48.260;10.988;2022-07-15T04:31:20;4.17;;;2.37;;
261;SDS011;114;48.260;10.988;2022-07-15T04:33:48;2.20;;;2.00;;
261;SDS011;114;48.260;10.988;2022-07-15T04:36:14;5.63;;;2.90;;
261;SDS011;114;48.260;10.988;2022-07-15T04:38:40;8.40;;;3.33;;
261;SDS011;114;48.260;10.988;2022-07-15T04:41:05;2.17;;;2.07;;
261;SDS011;114;48.260;10.988;2022-07-15T04:43:31;1.93;;;1.67;;
261;SDS011;114;48.260;10.988;2022-07-15T04:45:57;4.23;;;2.40;;
261;SDS011;114;48.260;10.988;2022-07-15T04:48:23;5.70;;;2.40;;
261;SDS011;114;48.260;10.988;2022-07-15T04:51:07;5.33;;;2.23;;
261;SDS011;114;48.260;10.988;2022-07-15T04:53:33;2.13;;;1.80;;
261;SDS011;114;48.260;10.988;2022-07-15T04:55:59;5.23;;;2.00;;
261;SDS011;114;48.260;10.988;2022-07-15T04:58:25;5.03;;;2.10;;
261;SDS011;114;48.260;10.988;2022-07-15T05:00:51;8.83;;;2.60;;
261;SDS011;114;48.260;10.988;2022-07-15T05:03:17;10.30;;;2.23;;
261;SDS011;114;48.260;10.988;2022-07-15T05:05:42;7.00;;;2.93;;
261;SDS011;114;48.260;10.988;2022-07-15T05:08:09;11.57;;;2.80;;
261;SDS011;114;48.260;10.988;2022-07-15T05:10:35;11.30;;;2.83;;
261;SDS011;114;48.260;10.988;2022-07-15T05:13:03;3.73;;;2.23;;
261;SDS011;114;48.260;10.988;2022-07-15T05:15:30;6.33;;;2.07;;
261;SDS011;114;48.260;10.988;2022-07-15T05:17:59;5.10;;;2.40;;
261;SDS011;114;48.260;10.988;2022-07-15T05:20:25;9.80;;;2.23;;
261;SDS011;114;48.260;10.988;2022-07-15T05:22:51;6.00;;;2.37;;
261;SDS011;114;48.260;10.988;2022-07-15T05:25:17;5.70;;;2.03;;
261;SDS011;114;48.260;10.988;2022-07-15T05:27:43;4.70;;;1.33;;
261;SDS011;114;48.260;10.988;2022-07-15T05:30:10;3.40;;;1.60;;
261;SDS011;114;48.260;10.988;2022-07-15T05:32:39;12.83;;;1.90;;
261;SDS011;114;48.260;10.988;2022-07-15T05:35:05;9.77;;;2.70;;
261;SDS011;114;48.260;10.988;2022-07-15T05:37:31;4.00;;;1.90;;
261;SDS011;114;48.260;10.988;2022-07-15T05:39:57;3.33;;;2.00;;
261;SDS011;114;48.260;10.988;2022-07-15T05:42:23;5.50;;;1.80;;
261;SDS011;114;48.260;10.988;2022-07-15T05:44:50;8.10;;;2.13;;
261;SDS011;114;48.260;10.988;2022-07-15T05:47:16;8.87;;;2.77;;
261;SDS011;114;48.260;10.988;2022-07-15T05:49:42;11.50;;;1.80;;
261;SDS011;114;48.260;10.988;2022-07-15T05:52:08;8.63;;;2.10;;
261;SDS011;114;48.260;10.988;2022-07-15T05:54:34;13.53;;;1.60;;
261;SDS011;114;48.260;10.988;2022-07-15T05:57:02;9.10;;;1.30;;
261;SDS011;114;48.260;10.988;2022-07-15T05:59:29;2.90;;;1.30;;
261;SDS011;114;48.260;10.988;2022-07-15T06:01:55;10.70;;;1.93;;
261;SDS011;114;48.260;10.988;2022-07-15T06:04:21;9.00;;;1.87;;
261;SDS011;114;48.260;10.988;2022-07-15T06:06:46;8.40;;;1.50;;
261;SDS011;114;48.260;10.988;2022-07-15T06:09:12;10.30;;;1.80;;
261;SDS011;114;48.260;10.988;2022-07-15T06:11:38;11.73;;;2.00;;
261;SDS011;114;48.260;10.988;2022-07-15T06:14:04;4.43;;;1.73;;
261;SDS011;114;48.260;10.988;2022-07-15T06:16:30;4.03;;;1.50;;
261;SDS011;114;48.260;10.988;2022-07-15T06:18:56;10.67;;;1.60;;
261;SDS011;114;48.260;10.988;2022-07-15T06:21:22;3.73;;;1.20;;
261;SDS011;114;48.260;10.988;2022-07-15T06:23:48;6.13;;;1.20;;
261;SDS011;114;48.260;10.988;2022-07-15T06:26:14;19.37;;;1.03;;
261;SDS011;114;48.260;10.988;2022-07-15T06:28:40;3.77;;;1.10;;
261;SDS011;114;48.260;10.988;2022-07-15T06:31:05;2.57;;;1.10;;
261;SDS011;114;48.260;10.988;2022-07-15T06:33:32;3.27;;;1.20;;
261;SDS011;114;48.260;10.988;2022-07-15T06:35:57;15.67;;;1.37;;
261;SDS011;114;48.260;10.988;2022-07-15T06:38:23;13.53;;;1.53;;
261;SDS011;114;48.260;10.988;2022-07-15T06:40:49;5.60;;;1.20;;
261;SDS011;114;48.260;10.988;2022-07-15T06:43:15;7.93;;;1.87;;
261;SDS011;114;48.260;10.988;2022-07-15T06:45:41;8.30;;;1.10;;
261;SDS011;114;48.260;10.988;2022-07-15T06:48:08;15.73;;;1.70;;
261;SDS011;114;48.260;10.988;2022-07-15T06:50:34;5.20;;;1.40;;
261;SDS011;114;48.260;10.988;2022-07-15T06:52:59;10.37;;;1.40;;
261;SDS011;114;48.260;10.988;2022-07-15T06:55:27;4.70;;;1.33;;
261;SDS011;114;48.260;10.988;2022-07-15T06:57:53;6.87;;;1.90;;
261;SDS011;114;48.260;10.988;2022-07-15T07:00:19;9.63;;;1.63;;
261;SDS011;114;48.260;10.988;2022-07-15T07:02:45;2.17;;;0.87;;
261;SDS011;114;48.260;10.988;2022-07-15T07:05:11;3.63;;;1.30;;
261;SDS011;114;48.260;10.988;2022-07-15T07:07:37;4.20;;;0.90;;
261;SDS011;114;48.260;10.988;2022-07-15T07:10:04;4.53;;;1.57;;
261;SDS011;114;48.260;10.988;2022-07-15T07:12:30;4.10;;;1.50;;
261;SDS011;114;48.260;10.988;2022-07-15T07:14:57;5.30;;;1.20;;
261;SDS011;114;48.260;10.988;2022-07-15T07:17:26;7.10;;;1.23;;
261;SDS011;114;48.260;10.988;2022-07-15T07:19:52;3.33;;;1.53;;
261;SDS011;114;48.260;10.988;2022-07-15T07:22:18;6.03;;;1.30;;
261;SDS011;114;48.260;10.988;2022-07-15T07:24:44;1.90;;;0.90;;
261;SDS011;114;48.260;10.988;2022-07-15T07:27:10;5.33;;;1.47;;
261;SDS011;114;48.260;10.988;2022-07-15T07:29:36;5.70;;;1.63;;
261;SDS011;114;48.260;10.988;2022-07-15T07:32:02;6.03;;;1.40;;
261;SDS011;114;48.260;10.988;2022-07-15T07:34:28;6.40;;;1.50;;
261;SDS011;114;48.260;10.988;2022-07-15T07:36:54;6.30;;;1.60;;
261;SDS011;114;48.260;10.988;2022-07-15T07:39:20;3.10;;;1.50;;
261;SDS011;114;48.260;10.988;2022-07-15T07:41:45;3.90;;;1.40;;
261;SDS011;114;48.260;10.988;2022-07-15T07:44:12;5.23;;;1.30;;
261;SDS011;114;48.260;10.988;2022-07-15T07:46:38;4.63;;;1.50;;
261;SDS011;114;48.260;10.988;2022-07-15T07:49:04;3.63;;;1.37;;
261;SDS011;114;48.260;10.988;2022-07-15T07:51:30;3.27;;;1.17;;
261;SDS011;114;48.260;10.988;2022-07-15T07:53:56;2.67;;;0.97;;
261;SDS011;114;48.260;10.988;2022-07-15T07:56:22;9.57;;;1.50;;
261;SDS011;114;48.260;10.988;2022-07-15T07:58:48;5.23;;;1.60;;
261;SDS011;114;48.260;10.988;2022-07-15T08:01:13;2.40;;;1.20;;
261;SDS011;114;48.260;10.988;2022-07-15T08:03:40;4.73;;;1.30;;
261;SDS011;114;48.260;10.988;2022-07-15T08:06:06;6.30;;;1.90;;
261;SDS011;114;48.260;10.988;2022-07-15T08:08:32;3.47;;;1.00;;
261;SDS011;114;48.260;10.988;2022-07-15T08:10:58;7.20;;;1.73;;
261;SDS011;114;48.260;10.988;2022-07-15T08:13:24;4.07;;;1.37;;
261;SDS011;114;48.260;10.988;2022-07-15T08:15:52;5.70;;;1.20;;
261;SDS011;114;48.260;10.988;2022-07-15T08:18:22;7.83;;;1.70;;
261;SDS011;114;48.260;10.988;2022-07-15T08:20:51;4.13;;;1.07;;
261;SDS011;114;48.260;10.988;2022-07-15T08:23:18;8.73;;;1.30;;
261;SDS011;114;48.260;10.988;2022-07-15T08:25:46;7.10;;;1.10;;
261;SDS011;114;48.260;10.988;2022-07-15T08:28:14;3.03;;;1.37;;
261;SDS011;114;48.260;10.988;2022-07-15T08:30:40;3.73;;;1.13;;
261;SDS011;114;48.260;10.988;2022-07-15T08:33:06;9.33;;;1.50;;
261;SDS011;114;48.260;10.988;2022-07-15T08:35:32;3.37;;;1.37;;
261;SDS011;114;48.260;10.988;2022-07-15T08:38:02;2.50;;;1.10;;
261;SDS011;114;48.260;10.988;2022-07-15T08:40:30;7.30;;;1.63;;
261;SDS011;114;48.260;10.988;2022-07-15T08:42:56;6.00;;;1.60;;
261;SDS011;114;48.260;10.988;2022-07-15T08:45:22;7.93;;;1.40;;
261;SDS011;114;48.260;10.988;2022-07-15T08:47:48;7.93;;;1.60;;
261;SDS011;114;48.260;10.988;2022-07-15T08:50:17;3.67;;;1.60;;
261;SDS011;114;48.260;10.988;2022-07-15T08:52:45;2.40;;;1.40;;
261;SDS011;114;48.260;10.988;2022-07-15T08:55:12;12.87;;;1.47;;
261;SDS011;114;48.260;10.988;2022-07-15T08:57:44;2.40;;;1.00;;
261;SDS011;114;48.260;10.988;2022-07-15T09:00:15;7.23;;;1.37;;
261;SDS011;114;48.260;10.988;2022-07-15T09:02:41;11.57;;;1.77;;
261;SDS011;114;48.260;10.988;2022-07-15T09:07:55;6.93;;;1.23;;
261;SDS011;114;48.260;10.988;2022-07-15T09:10:46;6.10;;;1.43;;
261;SDS011;114;48.260;10.988;2022-07-15T09:15:59;7.60;;;1.33;;
261;SDS011;114;48.260;10.988;2022-07-15T09:18:34;6.23;;;1.43;;
261;SDS011;114;48.260;10.988;2022-07-15T09:21:15;1.67;;;1.30;;
261;SDS011;114;48.260;10.988;2022-07-15T09:23:49;10.37;;;1.37;;
261;SDS011;114;48.260;10.988;2022-07-15T09:28:56;3.63;;;1.10;;
261;SDS011;114;48.260;10.988;2022-07-15T09:31:35;6.73;;;1.40;;
261;SDS011;114;48.260;10.988;2022-07-15T09:34:23;14.40;;;1.63;;
261;SDS011;114;48.260;10.988;2022-07-15T09:36:52;7.17;;;1.63;;
261;SDS011;114;48.260;10.988;2022-07-15T09:39:24;3.87;;;1.60;;
261;SDS011;114;48.260;10.988;2022-07-15T09:41:51;4.93;;;1.50;;
261;SDS011;114;48.260;10.988;2022-07-15T09:44:18;8.97;;;1.63;;
261;SDS011;114;48.260;10.988;2022-07-15T09:46:50;7.73;;;1.47;;
261;SDS011;114;48.260;10.988;2022-07-15T09:51:54;3.17;;;1.50;;
261;SDS011;114;48.260;10.988;2022-07-15T09:54:32;3.37;;;1.60;;
261;SDS011;114;48.260;10.988;2022-07-15T09:57:04;5.87;;;2.30;;
261;SDS011;114;48.260;10.988;2022-07-15T09:59:32;17.27;;;1.77;;
261;SDS011;114;48.260;10.988;2022-07-15T10:01:58;6.17;;;1.53;;
261;SDS011;114;48.260;10.988;2022-07-15T10:04:25;3.77;;;1.73;;
261;SDS011;114;48.260;10.988;2022-07-15T10:06:53;4.83;;;1.60;;
261;SDS011;114;48.260;10.988;2022-07-15T10:09:21;5.37;;;1.60;;
261;SDS011;114;48.260;10.988;2022-07-15T10:11:49;5.57;;;1.73;;
261;SDS011;114;48.260;10.988;2022-07-15T10:14:25;3.90;;;3.03;;
261;SDS011;114;48.260;10.988;2022-07-15T10:28:05;4.63;;;1.50;;
261;SDS011;114;48.260;10.988;2022-07-15T10:31:16;6.43;;;2.03;;
261;SDS011;114;48.260;10.988;2022-07-15T10:34:30;5.60;;;1.60;;
261;SDS011;114;48.260;10.988;2022-07-15T10:36:53;5.53;;;1.40;;
261;SDS011;114;48.260;10.988;2022-07-15T10:39:22;5.90;;;1.40;;
261;SDS011;114;48.260;10.988;2022-07-15T10:42:07;5.23;;;1.53;;
261;SDS011;114;48.260;10.988;2022-07-15T10:44:35;2.67;;;1.70;;
261;SDS011;114;48.260;10.988;2022-07-15T10:49:43;3.77;;;1.20;;
261;SDS011;114;48.260;10.988;2022-07-15T10:52:11;4.63;;;1.60;;
261;SDS011;114;48.260;10.988;2022-07-15T10:54:46;4.00;;;1.13;;
261;SDS011;114;48.260;10.988;2022-07-15T10:57:16;32.87;;;1.93;;
261;SDS011;114;48.260;10.988;2022-07-15T10:59:52;6.20;;;1.17;;
261;SDS011;114;48.260;10.988;2022-07-15T11:02:22;2.67;;;1.47;;
261;SDS011;114;48.260;10.988;2022-07-15T11:04:49;2.60;;;1.37;;
261;SDS011;114;48.260;10.988;2022-07-15T11:07:20;6.93;;;1.80;;
261;SDS011;114;48.260;10.988;2022-07-15T11:09:51;3.37;;;2.17;;
261;SDS011;114;48.260;10.988;2022-07-15T11:12:22;2.80;;;1.50;;
261;SDS011;114;48.260;10.988;2022-07-15T11:19:55;5.50;;;2.33;;
261;SDS011;114;48.260;10.988;2022-07-15T11:22:24;1.80;;;1.60;;
261;SDS011;114;48.260;10.988;2022-07-15T11:24:52;6.50;;;1.80;;
261;SDS011;114;48.260;10.988;2022-07-15T11:27:21;4.37;;;1.90;;
261;SDS011;114;48.260;10.988;2022-07-15T11:29:50;6.73;;;2.20;;
261;SDS011;114;48.260;10.988;2022-07-15T11:32:18;11.37;;;2.37;;
261;SDS011;114;48.260;10.988;2022-07-15T11:34:50;2.85;;;1.92;;
261;SDS011;114;48.260;10.988;2022-07-15T11:37:18;4.78;;;1.88;;
261;SDS011;114;48.260;10.988;2022-07-15T11:40:06;5.13;;;1.80;;
261;SDS011;114;48.260;10.988;2022-07-15T11:42:58;2.85;;;1.70;;
261;SDS011;114;48.260;10.988;2022-07-15T11:45:46;6.13;;;1.90;;
261;SDS011;114;48.260;10.988;2022-07-15T11:48:13;14.38;;;2.50;;
261;SDS011;114;48.260;10.988;2022-07-15T11:51:00;3.22;;;1.80;;
261;SDS011;114;48.260;10.988;2022-07-15T11:53:25;4.57;;;1.95;;
261;SDS011;114;48.260;10.988;2022-07-15T11:58:26;2.50;;;1.67;;
261;SDS011;114;48.260;10.988;2022-07-15T12:01:05;5.35;;;1.55;;
261;SDS011;114;48.260;10.988;2022-07-15T12:03:34;2.50;;;1.45;;
261;SDS011;114;48.260;10.988;2022-07-15T12:06:07;1.10;;;1.00;;
261;SDS011;114;48.260;10.988;2022-07-15T12:08:41;3.35;;;1.40;;
261;SDS011;114;48.260;10.988;2022-07-15T12:19:02;2.78;;;2.05;;
261;SDS011;114;48.260;10.988;2022-07-15T12:21:30;4.07;;;1.80;;
261;SDS011;114;48.260;10.988;2022-07-15T12:23:58;5.20;;;1.85;;
261;SDS011;114;48.260;10.988;2022-07-15T12:26:26;5.18;;;1.40;;
261;SDS011;114;48.260;10.988;2022-07-15T12:28:53;5.10;;;2.03;;
261;SDS011;114;48.260;10.988;2022-07-15T12:31:26;3.03;;;1.50;;
261;SDS011;114;48.260;10.988;2022-07-15T12:33:53;5.15;;;1.60;;
261;SDS011;114;48.260;10.988;2022-07-15T12:36:20;5.03;;;1.67;;
261;SDS011;114;48.260;10.988;2022-07-15T12:39:10;4.10;;;1.95;;
261;SDS011;114;48.260;10.988;2022-07-15T12:41:36;14.00;;;1.80;;
261;SDS011;114;48.260;10.988;2022-07-15T12:44:04;3.85;;;1.60;;
261;SDS011;114;48.260;10.988;2022-07-15T12:46:50;5.03;;;1.55;;
261;SDS011;114;48.260;10.988;2022-07-15T12:49:42;6.07;;;1.40;;
261;SDS011;114;48.260;10.988;2022-07-15T12:52:17;4.63;;;1.40;;
261;SDS011;114;48.260;10.988;2022-07-15T12:54:43;2.35;;;1.50;;
261;SDS011;114;48.260;10.988;2022-07-15T12:57:19;1.60;;;1.30;;
261;SDS011;114;48.260;10.988;2022-07-15T12:59:58;3.55;;;1.35;;
261;SDS011;114;48.260;10.988;2022-07-15T13:05:36;3.53;;;1.27;;
261;SDS011;114;48.260;10.988;2022-07-15T13:10:40;2.17;;;1.65;;
261;SDS011;114;48.260;10.988;2022-07-15T13:13:07;3.05;;;1.33;;
261;SDS011;114;48.260;10.988;2022-07-15T13:15:34;4.82;;;1.80;;
261;SDS011;114;48.260;10.988;2022-07-15T13:18:01;2.60;;;1.40;;
261;SDS011;114;48.260;10.988;2022-07-15T13:20:27;3.70;;;1.95;;
261;SDS011;114;48.260;10.988;2022-07-15T13:22:54;2.67;;;1.17;;
261;SDS011;114;48.260;10.988;2022-07-15T13:25:20;4.40;;;1.40;;
261;SDS011;114;48.260;10.988;2022-07-15T13:27:46;4.75;;;1.80;;
261;SDS011;114;48.260;10.988;2022-07-15T13:30:12;3.65;;;1.90;;
261;SDS011;114;48.260;10.988;2022-07-15T13:32:39;6.82;;;2.03;;
261;SDS011;114;48.260;10.988;2022-07-15T13:35:06;1.98;;;1.35;;
261;SDS011;114;48.260;10.988;2022-07-15T13:37:33;1.98;;;1.80;;
261;SDS011;114;48.260;10.988;2022-07-15T13:40:00;4.30;;;1.63;;
261;SDS011;114;48.260;10.988;2022-07-15T13:42:26;4.97;;;1.55;;
261;SDS011;114;48.260;10.988;2022-07-15T13:44:54;4.25;;;1.42;;
261;SDS011;114;48.260;10.988;2022-07-15T13:47:20;6.35;;;1.63;;
261;SDS011;114;48.260;10.988;2022-07-15T13:49:47;8.75;;;1.48;;
261;SDS011;114;48.260;10.988;2022-07-15T13:52:31;3.67;;;1.45;;
261;SDS011;114;48.260;10.988;2022-07-15T13:54:57;3.30;;;1.33;;
261;SDS011;114;48.260;10.988;2022-07-15T13:57:23;5.35;;;1.63;;
261;SDS011;114;48.260;10.988;2022-07-15T13:59:49;1.85;;;1.27;;
261;SDS011;114;48.260;10.988;2022-07-15T14:02:15;1.42;;;1.15;;
261;SDS011;114;48.260;10.988;2022-07-15T14:04:41;3.20;;;1.40;;
261;SDS011;114;48.260;10.988;2022-07-15T14:07:08;2.08;;;1.23;;
261;SDS011;114;48.260;10.988;2022-07-15T14:09:34;2.58;;;1.38;;
261;SDS011;114;48.260;10.988;2022-07-15T14:12:00;2.45;;;1.17;;
261;SDS011;114;48.260;10.988;2022-07-15T14:14:26;4.38;;;1.40;;
261;SDS011;114;48.260;10.988;2022-07-15T14:16:53;4.72;;;1.27;;
261;SDS011;114;48.260;10.988;2022-07-15T14:19:19;1.50;;;1.15;;
261;SDS011;114;48.260;10.988;2022-07-15T14:21:45;1.75;;;1.17;;
261;SDS011;114;48.260;10.988;2022-07-15T14:24:10;5.45;;;1.20;;
261;SDS011;114;48.260;10.988;2022-07-15T14:26:36;2.92;;;1.13;;
261;SDS011;114;48.260;10.988;2022-07-15T14:29:02;1.50;;;1.30;;
261;SDS011;114;48.260;10.988;2022-07-15T14:31:29;7.05;;;1.00;;
261;SDS011;114;48.260;10.988;2022-07-15T14:33:56;3.88;;;1.00;;
261;SDS011;114;48.260;10.988;2022-07-15T14:36:22;2.72;;;0.80;;
261;SDS011;114;48.260;10.988;2022-07-15T14:38:48;0.80;;;0.80;;
261;SDS011;114;48.260;10.988;2022-07-15T14:41:14;6.00;;;1.30;;
261;SDS011;114;48.260;10.988;2022-07-15T14:43:40;3.88;;;1.33;;
261;SDS011;114;48.260;10.988;2022-07-15T14:46:06;2.03;;;0.95;;
261;SDS011;114;48.260;10.988;2022-07-15T14:48:32;1.13;;;1.00;;
261;SDS011;114;48.260;10.988;2022-07-15T14:50:58;6.82;;;1.40;;
261;SDS011;114;48.260;10.988;2022-07-15T14:53:24;3.03;;;0.90;;
261;SDS011;114;48.260;10.988;2022-07-15T14:55:50;1.45;;;0.80;;
261;SDS011;114;48.260;10.988;2022-07-15T14:58:19;0.88;;;0.80;;
261;SDS011;114;48.260;10.988;2022-07-15T15:00:45;1.35;;;1.00;;
261;SDS011;114;48.260;10.988;2022-07-15T15:03:14;7.30;;;1.15;;
261;SDS011;114;48.260;10.988;2022-07-15T15:05:42;2.70;;;1.38;;
261;SDS011;114;48.260;10.988;2022-07-15T15:08:08;6.13;;;1.58;;
261;SDS011;114;48.260;10.988;2022-07-15T15:10:34;2.38;;;1.60;;
261;SDS011;114;48.260;10.988;2022-07-15T15:13:00;3.03;;;1.55;;
261;SDS011;114;48.260;10.988;2022-07-15T15:15:26;4.50;;;1.30;;
261;SDS011;114;48.260;10.988;2022-07-15T15:17:52;1.30;;;1.20;;
261;SDS011;114;48.260;10.988;2022-07-15T15:20:18;5.55;;;1.30;;
261;SDS011;114;48.260;10.988;2022-07-15T15:22:44;2.38;;;1.50;;
261;SDS011;114;48.260;10.988;2022-07-15T15:25:10;4.50;;;1.40;;
261;SDS011;114;48.260;10.988;2022-07-15T15:27:37;11.23;;;1.60;;
261;SDS011;114;48.260;10.988;2022-07-15T15:30:04;1.73;;;1.10;;
261;SDS011;114;48.260;10.988;2022-07-15T15:32:31;1.50;;;1.23;;
261;SDS011;114;48.260;10.988;2022-07-15T15:34:57;5.18;;;1.33;;
261;SDS011;114;48.260;10.988;2022-07-15T15:37:23;1.55;;;1.35;;
261;SDS011;114;48.260;10.988;2022-07-15T15:39:49;3.75;;;1.20;;
261;SDS011;114;48.260;10.988;2022-07-15T15:42:15;2.78;;;1.10;;
261;SDS011;114;48.260;10.988;2022-07-15T15:44:41;1.05;;;0.85;;
261;SDS011;114;48.260;10.988;2022-07-15T15:47:07;4.13;;;1.30;;
261;SDS011;114;48.260;10.988;2022-07-15T15:49:34;1.60;;;0.98;;
261;SDS011;114;48.260;10.988;2022-07-15T15:52:02;9.10;;;1.27;;
261;SDS011;114;48.260;10.988;2022-07-15T15:54:28;5.90;;;0.90;;
261;SDS011;114;48.260;10.988;2022-07-15T15:56:55;2.53;;;1.30;;
261;SDS011;114;48.260;10.988;2022-07-15T15:59:22;2.15;;;1.27;;
261;SDS011;114;48.260;10.988;2022-07-15T16:01:48;2.15;;;1.05;;
261;SDS011;114;48.260;10.988;2022-07-15T16:04:14;5.55;;;2.40;;
261;SDS011;114;48.260;10.988;2022-07-15T16:06:40;1.88;;;1.10;;
261;SDS011;114;48.260;10.988;2022-07-15T16:09:06;6.93;;;1.33;;
261;SDS011;114;48.260;10.988;2022-07-15T16:11:32;2.78;;;1.23;;
261;SDS011;114;48.260;10.988;2022-07-15T16:13:58;2.38;;;1.30;;
261;SDS011;114;48.260;10.988;2022-07-15T16:16:24;7.00;;;1.65;;
261;SDS011;114;48.260;10.988;2022-07-15T16:18:50;1.88;;;1.30;;
261;SDS011;114;48.260;10.988;2022-07-15T16:21:16;1.73;;;1.50;;